sensor_id;sensor_type;location;lat;lon;timestamp;P1;durP1;ratioP1;P2;durP2;ratioP2
32838;SDS011;19182;41.820;12.808;2024-02-26T00:00:13;6.85;;;3.75;;
32838;SDS011;19182;41.820;12.808;2024-02-26T00:02:40;11.20;;;4.10;;
32838;SDS011;19182;41.820;12.808;2024-02-26T00:05:07;5.47;;;3.78;;
32838;SDS011;19182;41.820;12.808;2024-02-26T00:07:33;9.05;;;4.03;;
32838;SDS011;19182;41.820;12.808;2024-02-26T00:09:59;6.75;;;4.18;;
32838;SDS011;19182;41.820;12.808;2024-02-26T00:12:26;5.78;;;3.42;;
32838;SDS011;19182;41.820;12.808;2024-02-26T00:14:54;14.98;;;3.75;;
32838;SDS011;19182;41.820;12.808;2024-02-26T00:17:26;7.78;;;4.00;;
32838;SDS011;19182;41.820;12.808;2024-02-26T00:19:53;7.28;;;3.65;;
32838;SDS011;19182;41.820;12.808;2024-02-26T00:22:21;6.63;;;3.03;;
32838;SDS011;19182;41.820;12.808;2024-02-26T00:24:48;6.43;;;3.50;;
32838;SDS011;19182;41.820;12.808;2024-02-26T00:27:14;8.40;;;4.50;;
32838;SDS011;19182;41.820;12.808;2024-02-26T00:29:40;9.10;;;3.78;;
32838;SDS011;19182;41.820;12.808;2024-02-26T00:32:06;8.27;;;4.30;;
32838;SDS011;19182;41.820;12.808;2024-02-26T00:34:33;6.63;;;4.57;;
32838;SDS011;19182;41.820;12.808;2024-02-26T00:36:58;8.13;;;4.30;;
32838;SDS011;19182;41.820;12.808;2024-02-26T00:39:24;7.40;;;3.78;;
32838;SDS011;19182;41.820;12.808;2024-02-26T00:41:50;7.97;;;3.83;;
32838;SDS011;19182;41.820;12.808;2024-02-26T00:44:17;5.38;;;3.47;;
32838;SDS011;19182;41.820;12.808;2024-02-26T00:46:44;6.32;;;3.40;;
32838;SDS011;19182;41.820;12.808;2024-02-26T00:49:10;5.13;;;3.88;;
32838;SDS011;19182;41.820;12.808;2024-02-26T00:51:37;8.38;;;4.00;;
32838;SDS011;19182;41.820;12.808;2024-02-26T00:54:04;7.53;;;3.92;;
32838;SDS011;19182;41.820;12.808;2024-02-26T00:56:36;7.88;;;4.68;;
32838;SDS011;19182;41.820;12.808;2024-02-26T00:59:02;6.57;;;3.80;;
32838;SDS011;19182;41.820;12.808;2024-02-26T01:01:31;8.30;;;3.83;;
32838;SDS011;19182;41.820;12.808;2024-02-26T01:04:00;8.75;;;4.40;;
32838;SDS011;19182;41.820;12.808;2024-02-26T01:06:26;5.13;;;3.10;;
32838;SDS011;19182;41.820;12.808;2024-02-26T01:08:52;6.90;;;3.63;;
32838;SDS011;19182;41.820;12.808;2024-02-26T01:11:29;6.88;;;3.53;;
32838;SDS011;19182;41.820;12.808;2024-02-26T01:13:58;5.55;;;3.53;;
32838;SDS011;19182;41.820;12.808;2024-02-26T01:16:24;5.90;;;3.47;;
32838;SDS011;19182;41.820;12.808;2024-02-26T01:18:50;8.20;;;3.65;;
32838;SDS011;19182;41.820;12.808;2024-02-26T01:21:16;5.75;;;3.63;;
32838;SDS011;19182;41.820;12.808;2024-02-26T01:23:42;5.10;;;3.30;;
32838;SDS011;19182;41.820;12.808;2024-02-26T01:26:08;6.28;;;3.50;;
32838;SDS011;19182;41.820;12.808;2024-02-26T01:28:34;5.40;;;3.72;;
32838;SDS011;19182;41.820;12.808;2024-02-26T01:31:00;7.25;;;3.20;;
32838;SDS011;19182;41.820;12.808;2024-02-26T01:33:30;4.35;;;2.92;;
32838;SDS011;19182;41.820;12.808;2024-02-26T01:35:56;3.13;;;2.80;;
32838;SDS011;19182;41.820;12.808;2024-02-26T01:38:22;3.40;;;2.67;;
32838;SDS011;19182;41.820;12.808;2024-02-26T01:40:48;9.93;;;3.45;;
32838;SDS011;19182;41.820;12.808;2024-02-26T01:43:14;4.53;;;3.00;;
32838;SDS011;19182;41.820;12.808;2024-02-26T01:45:40;4.22;;;2.92;;
32838;SDS011;19182;41.820;12.808;2024-02-26T01:48:06;3.15;;;2.83;;
32838;SDS011;19182;41.820;12.808;2024-02-26T01:50:33;5.88;;;2.83;;
32838;SDS011;19182;41.820;12.808;2024-02-26T01:52:59;6.00;;;3.25;;
32838;SDS011;19182;41.820;12.808;2024-02-26T01:55:26;17.27;;;4.25;;
32838;SDS011;19182;41.820;12.808;2024-02-26T01:57:53;4.70;;;2.70;;
32838;SDS011;19182;41.820;12.808;2024-02-26T02:00:20;5.82;;;3.53;;
32838;SDS011;19182;41.820;12.808;2024-02-26T02:02:46;6.60;;;3.28;;
32838;SDS011;19182;41.820;12.808;2024-02-26T02:05:14;22.38;;;5.15;;
32838;SDS011;19182;41.820;12.808;2024-02-26T02:07:43;6.47;;;3.47;;
32838;SDS011;19182;41.820;12.808;2024-02-26T02:10:12;4.82;;;3.38;;
32838;SDS011;19182;41.820;12.808;2024-02-26T02:12:40;5.40;;;3.97;;
32838;SDS011;19182;41.820;12.808;2024-02-26T02:15:07;6.07;;;4.18;;
32838;SDS011;19182;41.820;12.808;2024-02-26T02:17:33;4.72;;;3.60;;
32838;SDS011;19182;41.820;12.808;2024-02-26T02:20:00;7.57;;;3.40;;
32838;SDS011;19182;41.820;12.808;2024-02-26T02:22:26;7.25;;;2.85;;
32838;SDS011;19182;41.820;12.808;2024-02-26T02:24:53;6.75;;;3.35;;
32838;SDS011;19182;41.820;12.808;2024-02-26T02:27:20;7.90;;;3.47;;
32838;SDS011;19182;41.820;12.808;2024-02-26T02:29:47;4.43;;;2.75;;
32838;SDS011;19182;41.820;12.808;2024-02-26T02:32:14;7.10;;;3.30;;
32838;SDS011;19182;41.820;12.808;2024-02-26T02:34:42;4.50;;;2.85;;
32838;SDS011;19182;41.820;12.808;2024-02-26T02:37:08;7.15;;;3.22;;
32838;SDS011;19182;41.820;12.808;2024-02-26T02:39:34;10.07;;;3.60;;
32838;SDS011;19182;41.820;12.808;2024-02-26T02:42:00;4.05;;;3.22;;
32838;SDS011;19182;41.820;12.808;2024-02-26T02:44:26;6.82;;;3.60;;
32838;SDS011;19182;41.820;12.808;2024-02-26T02:46:53;6.43;;;3.35;;
32838;SDS011;19182;41.820;12.808;2024-02-26T02:49:19;5.82;;;3.55;;
32838;SDS011;19182;41.820;12.808;2024-02-26T02:51:48;7.10;;;3.70;;
32838;SDS011;19182;41.820;12.808;2024-02-26T02:54:15;4.93;;;3.35;;
32838;SDS011;19182;41.820;12.808;2024-02-26T02:56:42;5.53;;;3.55;;
32838;SDS011;19182;41.820;12.808;2024-02-26T02:59:08;6.15;;;3.22;;
32838;SDS011;19182;41.820;12.808;2024-02-26T03:01:34;7.25;;;3.45;;
32838;SDS011;19182;41.820;12.808;2024-02-26T03:04:00;9.07;;;3.65;;
32838;SDS011;19182;41.820;12.808;2024-02-26T03:06:26;7.82;;;3.53;;
32838;SDS011;19182;41.820;12.808;2024-02-26T03:08:53;8.63;;;3.67;;
32838;SDS011;19182;41.820;12.808;2024-02-26T03:11:20;6.30;;;3.25;;
32838;SDS011;19182;41.820;12.808;2024-02-26T03:13:46;7.25;;;3.20;;
32838;SDS011;19182;41.820;12.808;2024-02-26T03:16:13;9.23;;;4.03;;
32838;SDS011;19182;41.820;12.808;2024-02-26T03:18:40;5.68;;;3.50;;
32838;SDS011;19182;41.820;12.808;2024-02-26T03:21:06;10.77;;;3.60;;
32838;SDS011;19182;41.820;12.808;2024-02-26T03:23:32;6.13;;;3.22;;
32838;SDS011;19182;41.820;12.808;2024-02-26T03:26:01;9.02;;;3.65;;
32838;SDS011;19182;41.820;12.808;2024-02-26T03:28:29;4.70;;;3.00;;
32838;SDS011;19182;41.820;12.808;2024-02-26T03:30:58;7.22;;;3.15;;
32838;SDS011;19182;41.820;12.808;2024-02-26T03:33:25;5.75;;;3.30;;
32838;SDS011;19182;41.820;12.808;2024-02-26T03:35:51;5.20;;;3.13;;
32838;SDS011;19182;41.820;12.808;2024-02-26T03:38:18;6.88;;;2.90;;
32838;SDS011;19182;41.820;12.808;2024-02-26T03:40:44;4.85;;;3.20;;
32838;SDS011;19182;41.820;12.808;2024-02-26T03:43:11;6.55;;;3.60;;
32838;SDS011;19182;41.820;12.808;2024-02-26T03:45:37;5.13;;;2.85;;
32838;SDS011;19182;41.820;12.808;2024-02-26T03:48:04;5.88;;;3.45;;
32838;SDS011;19182;41.820;12.808;2024-02-26T03:50:31;14.25;;;4.32;;
32838;SDS011;19182;41.820;12.808;2024-02-26T03:52:57;7.35;;;4.05;;
32838;SDS011;19182;41.820;12.808;2024-02-26T03:55:23;6.88;;;3.15;;
32838;SDS011;19182;41.820;12.808;2024-02-26T03:57:51;7.18;;;3.58;;
32838;SDS011;19182;41.820;12.808;2024-02-26T04:00:18;9.50;;;3.75;;
32838;SDS011;19182;41.820;12.808;2024-02-26T04:02:44;8.00;;;4.10;;
32838;SDS011;19182;41.820;12.808;2024-02-26T04:05:10;6.82;;;3.50;;
32838;SDS011;19182;41.820;12.808;2024-02-26T04:07:36;8.38;;;4.13;;
32838;SDS011;19182;41.820;12.808;2024-02-26T04:10:02;9.95;;;4.75;;
32838;SDS011;19182;41.820;12.808;2024-02-26T04:12:31;7.63;;;4.40;;
32838;SDS011;19182;41.820;12.808;2024-02-26T04:14:56;7.43;;;5.43;;
32838;SDS011;19182;41.820;12.808;2024-02-26T04:17:22;13.60;;;6.53;;
32838;SDS011;19182;41.820;12.808;2024-02-26T04:19:52;9.20;;;6.10;;
32838;SDS011;19182;41.820;12.808;2024-02-26T04:22:21;12.57;;;7.32;;
32838;SDS011;19182;41.820;12.808;2024-02-26T04:24:48;10.68;;;6.28;;
32838;SDS011;19182;41.820;12.808;2024-02-26T04:27:14;10.55;;;7.30;;
32838;SDS011;19182;41.820;12.808;2024-02-26T04:29:39;15.40;;;8.02;;
32838;SDS011;19182;41.820;12.808;2024-02-26T04:32:05;12.77;;;7.68;;
32838;SDS011;19182;41.820;12.808;2024-02-26T04:34:31;15.05;;;8.10;;
32838;SDS011;19182;41.820;12.808;2024-02-26T04:36:57;15.35;;;7.60;;
32838;SDS011;19182;41.820;12.808;2024-02-26T04:39:23;16.83;;;7.18;;
32838;SDS011;19182;41.820;12.808;2024-02-26T04:41:49;10.98;;;6.85;;
32838;SDS011;19182;41.820;12.808;2024-02-26T04:44:14;12.75;;;7.00;;
32838;SDS011;19182;41.820;12.808;2024-02-26T04:46:40;10.23;;;6.43;;
32838;SDS011;19182;41.820;12.808;2024-02-26T04:49:05;10.60;;;6.63;;
32838;SDS011;19182;41.820;12.808;2024-02-26T04:51:31;13.18;;;6.70;;
32838;SDS011;19182;41.820;12.808;2024-02-26T04:53:57;12.27;;;6.68;;
32838;SDS011;19182;41.820;12.808;2024-02-26T04:56:24;12.50;;;7.18;;
32838;SDS011;19182;41.820;12.808;2024-02-26T04:58:50;12.07;;;7.15;;
32838;SDS011;19182;41.820;12.808;2024-02-26T05:01:16;13.35;;;6.18;;
32838;SDS011;19182;41.820;12.808;2024-02-26T05:03:42;12.27;;;7.00;;
32838;SDS011;19182;41.820;12.808;2024-02-26T05:06:11;15.45;;;8.23;;
32838;SDS011;19182;41.820;12.808;2024-02-26T05:08:37;13.05;;;7.13;;
32838;SDS011;19182;41.820;12.808;2024-02-26T05:11:03;14.57;;;8.18;;
32838;SDS011;19182;41.820;12.808;2024-02-26T05:13:30;14.15;;;7.30;;
32838;SDS011;19182;41.820;12.808;2024-02-26T05:15:55;15.32;;;8.25;;
32838;SDS011;19182;41.820;12.808;2024-02-26T05:18:24;12.13;;;7.93;;
32838;SDS011;19182;41.820;12.808;2024-02-26T05:20:50;11.70;;;8.02;;
32838;SDS011;19182;41.820;12.808;2024-02-26T05:23:15;15.07;;;7.55;;
32838;SDS011;19182;41.820;12.808;2024-02-26T05:25:41;15.20;;;8.65;;
32838;SDS011;19182;41.820;12.808;2024-02-26T05:28:07;16.00;;;8.30;;
32838;SDS011;19182;41.820;12.808;2024-02-26T05:30:32;13.05;;;8.13;;
32838;SDS011;19182;41.820;12.808;2024-02-26T05:33:01;17.75;;;9.00;;
32838;SDS011;19182;41.820;12.808;2024-02-26T05:35:28;16.58;;;8.77;;
32838;SDS011;19182;41.820;12.808;2024-02-26T05:37:54;13.93;;;9.13;;
32838;SDS011;19182;41.820;12.808;2024-02-26T05:40:26;15.63;;;9.57;;
32838;SDS011;19182;41.820;12.808;2024-02-26T05:42:55;15.07;;;9.10;;
32838;SDS011;19182;41.820;12.808;2024-02-26T05:45:20;20.02;;;10.73;;
32838;SDS011;19182;41.820;12.808;2024-02-26T05:47:47;11.65;;;8.90;;
32838;SDS011;19182;41.820;12.808;2024-02-26T05:50:15;16.50;;;10.00;;
32838;SDS011;19182;41.820;12.808;2024-02-26T05:52:41;17.00;;;9.73;;
32838;SDS011;19182;41.820;12.808;2024-02-26T05:55:07;15.93;;;9.90;;
32838;SDS011;19182;41.820;12.808;2024-02-26T05:57:33;19.25;;;11.13;;
32838;SDS011;19182;41.820;12.808;2024-02-26T06:00:03;20.75;;;11.40;;
32838;SDS011;19182;41.820;12.808;2024-02-26T06:02:38;17.95;;;11.45;;
32838;SDS011;19182;41.820;12.808;2024-02-26T06:05:04;17.83;;;9.95;;
32838;SDS011;19182;41.820;12.808;2024-02-26T06:07:32;17.10;;;10.90;;
32838;SDS011;19182;41.820;12.808;2024-02-26T06:10:01;19.05;;;10.50;;
32838;SDS011;19182;41.820;12.808;2024-02-26T06:12:29;23.67;;;13.20;;
32838;SDS011;19182;41.820;12.808;2024-02-26T06:14:56;30.98;;;13.77;;
32838;SDS011;19182;41.820;12.808;2024-02-26T06:17:26;20.25;;;10.90;;
32838;SDS011;19182;41.820;12.808;2024-02-26T06:19:51;16.38;;;10.93;;
32838;SDS011;19182;41.820;12.808;2024-02-26T06:22:18;17.77;;;9.13;;
32838;SDS011;19182;41.820;12.808;2024-02-26T06:24:44;17.17;;;9.77;;
32838;SDS011;19182;41.820;12.808;2024-02-26T06:27:10;15.48;;;8.85;;
32838;SDS011;19182;41.820;12.808;2024-02-26T06:29:37;16.98;;;9.63;;
32838;SDS011;19182;41.820;12.808;2024-02-26T06:32:04;18.50;;;9.35;;
32838;SDS011;19182;41.820;12.808;2024-02-26T06:34:31;10.20;;;7.40;;
32838;SDS011;19182;41.820;12.808;2024-02-26T06:37:03;13.77;;;7.45;;
32838;SDS011;19182;41.820;12.808;2024-02-26T06:39:32;15.35;;;6.75;;
32838;SDS011;19182;41.820;12.808;2024-02-26T06:41:57;11.30;;;7.50;;
32838;SDS011;19182;41.820;12.808;2024-02-26T06:44:27;12.00;;;7.60;;
32838;SDS011;19182;41.820;12.808;2024-02-26T06:47:00;10.82;;;7.07;;
32838;SDS011;19182;41.820;12.808;2024-02-26T06:49:26;7.87;;;6.50;;
32838;SDS011;19182;41.820;12.808;2024-02-26T06:51:52;12.38;;;6.72;;
32838;SDS011;19182;41.820;12.808;2024-02-26T06:54:18;9.52;;;5.65;;
32838;SDS011;19182;41.820;12.808;2024-02-26T06:56:46;9.63;;;7.03;;
32838;SDS011;19182;41.820;12.808;2024-02-26T06:59:14;20.17;;;11.37;;
32838;SDS011;19182;41.820;12.808;2024-02-26T07:01:45;26.15;;;15.13;;
32838;SDS011;19182;41.820;12.808;2024-02-26T07:04:10;26.25;;;15.57;;
32838;SDS011;19182;41.820;12.808;2024-02-26T07:06:36;17.23;;;10.27;;
32838;SDS011;19182;41.820;12.808;2024-02-26T07:09:02;13.93;;;9.27;;
32838;SDS011;19182;41.820;12.808;2024-02-26T07:11:28;10.00;;;7.13;;
32838;SDS011;19182;41.820;12.808;2024-02-26T07:13:54;24.15;;;8.38;;
32838;SDS011;19182;41.820;12.808;2024-02-26T07:16:21;10.63;;;6.50;;
32838;SDS011;19182;41.820;12.808;2024-02-26T07:18:47;9.93;;;6.90;;
32838;SDS011;19182;41.820;12.808;2024-02-26T07:21:13;12.70;;;7.45;;
32838;SDS011;19182;41.820;12.808;2024-02-26T07:23:38;9.52;;;6.28;;
32838;SDS011;19182;41.820;12.808;2024-02-26T07:26:04;10.65;;;6.38;;
32838;SDS011;19182;41.820;12.808;2024-02-26T07:28:33;10.10;;;6.72;;
32838;SDS011;19182;41.820;12.808;2024-02-26T07:30:59;10.82;;;7.35;;
32838;SDS011;19182;41.820;12.808;2024-02-26T07:33:26;13.07;;;7.60;;
32838;SDS011;19182;41.820;12.808;2024-02-26T07:35:51;13.68;;;8.50;;
32838;SDS011;19182;41.820;12.808;2024-02-26T07:38:18;12.70;;;7.82;;
32838;SDS011;19182;41.820;12.808;2024-02-26T07:43:13;15.07;;;7.05;;
32838;SDS011;19182;41.820;12.808;2024-02-26T07:45:39;10.93;;;7.28;;
32838;SDS011;19182;41.820;12.808;2024-02-26T07:48:05;13.40;;;7.35;;
32838;SDS011;19182;41.820;12.808;2024-02-26T07:50:31;15.43;;;9.88;;
32838;SDS011;19182;41.820;12.808;2024-02-26T07:53:03;17.67;;;10.55;;
32838;SDS011;19182;41.820;12.808;2024-02-26T07:55:29;9.65;;;6.47;;
32838;SDS011;19182;41.820;12.808;2024-02-26T07:57:55;11.38;;;5.93;;
32838;SDS011;19182;41.820;12.808;2024-02-26T08:00:20;8.23;;;5.70;;
32838;SDS011;19182;41.820;12.808;2024-02-26T08:02:47;10.40;;;5.35;;
32838;SDS011;19182;41.820;12.808;2024-02-26T08:05:13;10.68;;;5.53;;
32838;SDS011;19182;41.820;12.808;2024-02-26T08:07:39;9.95;;;5.40;;
32838;SDS011;19182;41.820;12.808;2024-02-26T08:10:06;7.38;;;4.93;;
32838;SDS011;19182;41.820;12.808;2024-02-26T08:12:36;10.18;;;5.63;;
32838;SDS011;19182;41.820;12.808;2024-02-26T08:15:03;9.15;;;5.68;;
32838;SDS011;19182;41.820;12.808;2024-02-26T08:17:45;14.48;;;6.10;;
32838;SDS011;19182;41.820;12.808;2024-02-26T08:20:18;8.95;;;4.93;;
32838;SDS011;19182;41.820;12.808;2024-02-26T08:22:44;8.30;;;4.55;;
32838;SDS011;19182;41.820;12.808;2024-02-26T08:25:12;8.65;;;5.38;;
32838;SDS011;19182;41.820;12.808;2024-02-26T08:27:41;6.80;;;4.97;;
32838;SDS011;19182;41.820;12.808;2024-02-26T08:30:07;12.57;;;6.85;;
32838;SDS011;19182;41.820;12.808;2024-02-26T08:32:32;16.88;;;6.93;;
32838;SDS011;19182;41.820;12.808;2024-02-26T08:34:58;8.45;;;5.30;;
32838;SDS011;19182;41.820;12.808;2024-02-26T08:37:24;9.60;;;5.40;;
32838;SDS011;19182;41.820;12.808;2024-02-26T08:39:50;13.88;;;5.75;;
32838;SDS011;19182;41.820;12.808;2024-02-26T08:42:16;15.70;;;6.53;;
32838;SDS011;19182;41.820;12.808;2024-02-26T08:44:42;9.25;;;5.63;;
32838;SDS011;19182;41.820;12.808;2024-02-26T08:47:08;15.95;;;5.75;;
32838;SDS011;19182;41.820;12.808;2024-02-26T08:49:34;11.05;;;5.82;;
32838;SDS011;19182;41.820;12.808;2024-02-26T08:51:59;10.80;;;5.10;;
32838;SDS011;19182;41.820;12.808;2024-02-26T08:54:29;7.38;;;5.13;;
32838;SDS011;19182;41.820;12.808;2024-02-26T08:56:54;9.82;;;4.45;;
32838;SDS011;19182;41.820;12.808;2024-02-26T08:59:20;5.50;;;4.18;;
32838;SDS011;19182;41.820;12.808;2024-02-26T09:01:48;8.98;;;3.72;;
32838;SDS011;19182;41.820;12.808;2024-02-26T09:04:15;10.45;;;4.10;;
32838;SDS011;19182;41.820;12.808;2024-02-26T09:06:40;5.75;;;3.38;;
32838;SDS011;19182;41.820;12.808;2024-02-26T09:09:06;7.65;;;4.53;;
32838;SDS011;19182;41.820;12.808;2024-02-26T09:11:32;7.80;;;4.13;;
32838;SDS011;19182;41.820;12.808;2024-02-26T09:13:58;9.25;;;5.55;;
32838;SDS011;19182;41.820;12.808;2024-02-26T09:16:25;14.98;;;6.97;;
32838;SDS011;19182;41.820;12.808;2024-02-26T09:18:51;10.57;;;4.75;;
32838;SDS011;19182;41.820;12.808;2024-02-26T09:21:34;13.80;;;5.75;;
32838;SDS011;19182;41.820;12.808;2024-02-26T09:24:01;9.88;;;4.18;;
32838;SDS011;19182;41.820;12.808;2024-02-26T09:26:27;8.07;;;3.88;;
32838;SDS011;19182;41.820;12.808;2024-02-26T09:28:53;8.45;;;4.40;;
32838;SDS011;19182;41.820;12.808;2024-02-26T09:31:18;11.93;;;4.63;;
32838;SDS011;19182;41.820;12.808;2024-02-26T09:33:44;11.88;;;6.10;;
32838;SDS011;19182;41.820;12.808;2024-02-26T09:36:11;13.77;;;5.80;;
32838;SDS011;19182;41.820;12.808;2024-02-26T09:38:38;14.90;;;7.43;;
32838;SDS011;19182;41.820;12.808;2024-02-26T09:41:05;13.75;;;6.88;;
32838;SDS011;19182;41.820;12.808;2024-02-26T09:43:34;15.38;;;7.57;;
32838;SDS011;19182;41.820;12.808;2024-02-26T09:46:04;8.40;;;4.90;;
32838;SDS011;19182;41.820;12.808;2024-02-26T09:48:31;9.18;;;5.05;;
32838;SDS011;19182;41.820;12.808;2024-02-26T09:50:59;11.50;;;5.82;;
32838;SDS011;19182;41.820;12.808;2024-02-26T09:53:29;9.75;;;5.55;;
32838;SDS011;19182;41.820;12.808;2024-02-26T09:56:00;10.55;;;5.88;;
32838;SDS011;19182;41.820;12.808;2024-02-26T09:58:27;15.73;;;6.35;;
32838;SDS011;19182;41.820;12.808;2024-02-26T10:00:56;9.87;;;6.27;;
32838;SDS011;19182;41.820;12.808;2024-02-26T10:03:34;12.23;;;6.43;;
32838;SDS011;19182;41.820;12.808;2024-02-26T10:06:08;10.68;;;5.20;;
32838;SDS011;19182;41.820;12.808;2024-02-26T10:08:34;9.15;;;5.72;;
32838;SDS011;19182;41.820;12.808;2024-02-26T10:11:02;11.18;;;5.68;;
32838;SDS011;19182;41.820;12.808;2024-02-26T10:13:29;7.55;;;5.28;;
32838;SDS011;19182;41.820;12.808;2024-02-26T10:15:55;16.15;;;9.85;;
32838;SDS011;19182;41.820;12.808;2024-02-26T10:18:22;15.52;;;10.68;;
32838;SDS011;19182;41.820;12.808;2024-02-26T10:21:01;9.55;;;5.72;;
32838;SDS011;19182;41.820;12.808;2024-02-26T10:23:27;12.40;;;5.18;;
32838;SDS011;19182;41.820;12.808;2024-02-26T10:25:54;10.60;;;6.00;;
32838;SDS011;19182;41.820;12.808;2024-02-26T10:28:20;17.60;;;10.32;;
32838;SDS011;19182;41.820;12.808;2024-02-26T10:30:47;14.85;;;7.45;;
32838;SDS011;19182;41.820;12.808;2024-02-26T10:33:15;10.23;;;5.47;;
32838;SDS011;19182;41.820;12.808;2024-02-26T10:35:48;13.57;;;7.95;;
32838;SDS011;19182;41.820;12.808;2024-02-26T10:38:14;9.18;;;5.60;;
32838;SDS011;19182;41.820;12.808;2024-02-26T10:40:42;8.90;;;4.72;;
32838;SDS011;19182;41.820;12.808;2024-02-26T10:43:08;14.73;;;5.80;;
32838;SDS011;19182;41.820;12.808;2024-02-26T10:45:34;9.82;;;5.90;;
32838;SDS011;19182;41.820;12.808;2024-02-26T10:48:02;8.43;;;5.85;;
32838;SDS011;19182;41.820;12.808;2024-02-26T10:50:31;8.23;;;5.78;;
32838;SDS011;19182;41.820;12.808;2024-02-26T10:52:57;11.32;;;6.03;;
32838;SDS011;19182;41.820;12.808;2024-02-26T10:55:24;10.05;;;5.93;;
32838;SDS011;19182;41.820;12.808;2024-02-26T10:57:51;16.88;;;9.93;;
32838;SDS011;19182;41.820;12.808;2024-02-26T11:00:18;14.20;;;6.22;;
32838;SDS011;19182;41.820;12.808;2024-02-26T11:02:44;12.68;;;8.45;;
32838;SDS011;19182;41.820;12.808;2024-02-26T11:05:11;13.73;;;9.25;;
32838;SDS011;19182;41.820;12.808;2024-02-26T11:07:40;10.43;;;6.97;;
32838;SDS011;19182;41.820;12.808;2024-02-26T11:10:07;10.40;;;4.97;;
32838;SDS011;19182;41.820;12.808;2024-02-26T11:12:34;9.43;;;5.22;;
32838;SDS011;19182;41.820;12.808;2024-02-26T11:15:02;6.72;;;4.55;;
32838;SDS011;19182;41.820;12.808;2024-02-26T11:17:29;16.13;;;6.97;;
32838;SDS011;19182;41.820;12.808;2024-02-26T11:19:57;9.50;;;4.95;;
32838;SDS011;19182;41.820;12.808;2024-02-26T11:22:27;8.02;;;4.72;;
32838;SDS011;19182;41.820;12.808;2024-02-26T11:24:54;13.20;;;5.40;;
32838;SDS011;19182;41.820;12.808;2024-02-26T11:27:56;8.97;;;3.63;;
32838;SDS011;19182;41.820;12.808;2024-02-26T11:30:17;7.90;;;3.22;;
32838;SDS011;19182;41.820;12.808;2024-02-26T11:32:44;6.47;;;3.08;;
32838;SDS011;19182;41.820;12.808;2024-02-26T11:35:13;9.52;;;2.30;;
32838;SDS011;19182;41.820;12.808;2024-02-26T11:37:56;5.18;;;1.50;;
32838;SDS011;19182;41.820;12.808;2024-02-26T11:40:29;1.90;;;1.45;;
32838;SDS011;19182;41.820;12.808;2024-02-26T11:42:57;4.75;;;3.05;;
32838;SDS011;19182;41.820;12.808;2024-02-26T11:48:05;3.90;;;1.75;;
32838;SDS011;19182;41.820;12.808;2024-02-26T11:50:45;4.57;;;2.42;;
32838;SDS011;19182;41.820;12.808;2024-02-26T11:53:21;4.68;;;1.80;;
32838;SDS011;19182;41.820;12.808;2024-02-26T11:58:42;4.43;;;2.30;;
32838;SDS011;19182;41.820;12.808;2024-02-26T12:04:04;13.05;;;7.75;;
32838;SDS011;19182;41.820;12.808;2024-02-26T12:06:31;12.70;;;7.22;;
32838;SDS011;19182;41.820;12.808;2024-02-26T12:09:05;4.68;;;3.10;;
32838;SDS011;19182;41.820;12.808;2024-02-26T12:11:38;9.63;;;5.78;;
32838;SDS011;19182;41.820;12.808;2024-02-26T12:14:05;3.72;;;2.10;;
32838;SDS011;19182;41.820;12.808;2024-02-26T12:16:38;7.68;;;4.00;;
32838;SDS011;19182;41.820;12.808;2024-02-26T12:19:05;2.35;;;1.80;;
32838;SDS011;19182;41.820;12.808;2024-02-26T12:21:33;3.65;;;2.20;;
32838;SDS011;19182;41.820;12.808;2024-02-26T12:24:07;5.07;;;2.42;;
32838;SDS011;19182;41.820;12.808;2024-02-26T12:26:36;5.15;;;2.28;;
32838;SDS011;19182;41.820;12.808;2024-02-26T12:29:02;17.83;;;8.75;;
32838;SDS011;19182;41.820;12.808;2024-02-26T12:31:28;6.68;;;2.95;;
32838;SDS011;19182;41.820;12.808;2024-02-26T12:33:54;4.03;;;1.85;;
32838;SDS011;19182;41.820;12.808;2024-02-26T12:36:21;12.07;;;2.33;;
32838;SDS011;19182;41.820;12.808;2024-02-26T12:38:48;6.25;;;2.72;;
32838;SDS011;19182;41.820;12.808;2024-02-26T12:41:16;3.92;;;2.20;;
32838;SDS011;19182;41.820;12.808;2024-02-26T12:43:43;8.48;;;2.40;;
32838;SDS011;19182;41.820;12.808;2024-02-26T12:46:08;13.93;;;8.30;;
32838;SDS011;19182;41.820;12.808;2024-02-26T12:48:35;11.77;;;7.03;;
32838;SDS011;19182;41.820;12.808;2024-02-26T12:51:06;7.60;;;4.47;;
32838;SDS011;19182;41.820;12.808;2024-02-26T12:53:32;6.28;;;2.22;;
32838;SDS011;19182;41.820;12.808;2024-02-26T12:56:02;5.15;;;2.63;;
32838;SDS011;19182;41.820;12.808;2024-02-26T12:58:28;18.25;;;12.52;;
32838;SDS011;19182;41.820;12.808;2024-02-26T13:00:58;33.50;;;18.42;;
32838;SDS011;19182;41.820;12.808;2024-02-26T13:03:24;10.25;;;5.32;;
32838;SDS011;19182;41.820;12.808;2024-02-26T13:05:50;6.70;;;4.00;;
32838;SDS011;19182;41.820;12.808;2024-02-26T13:08:17;3.65;;;2.00;;
32838;SDS011;19182;41.820;12.808;2024-02-26T13:10:49;4.22;;;2.90;;
32838;SDS011;19182;41.820;12.808;2024-02-26T13:13:17;5.40;;;3.25;;
32838;SDS011;19182;41.820;12.808;2024-02-26T13:15:45;3.05;;;1.77;;
32838;SDS011;19182;41.820;12.808;2024-02-26T13:18:12;5.72;;;2.17;;
32838;SDS011;19182;41.820;12.808;2024-02-26T13:20:39;4.10;;;1.83;;
32838;SDS011;19182;41.820;12.808;2024-02-26T13:23:12;4.38;;;1.90;;
32838;SDS011;19182;41.820;12.808;2024-02-26T13:25:41;3.05;;;2.00;;
32838;SDS011;19182;41.820;12.808;2024-02-26T13:28:14;1.95;;;1.73;;
32838;SDS011;19182;41.820;12.808;2024-02-26T13:30:42;6.47;;;2.05;;
32838;SDS011;19182;41.820;12.808;2024-02-26T13:33:22;3.47;;;1.65;;
32838;SDS011;19182;41.820;12.808;2024-02-26T13:35:49;7.57;;;5.28;;
32838;SDS011;19182;41.820;12.808;2024-02-26T13:38:15;4.22;;;2.47;;
32838;SDS011;19182;41.820;12.808;2024-02-26T13:40:52;2.92;;;2.20;;
32838;SDS011;19182;41.820;12.808;2024-02-26T13:43:22;3.38;;;1.75;;
32838;SDS011;19182;41.820;12.808;2024-02-26T13:45:49;3.88;;;2.22;;
32838;SDS011;19182;41.820;12.808;2024-02-26T13:48:15;4.90;;;1.80;;
32838;SDS011;19182;41.820;12.808;2024-02-26T13:50:41;3.70;;;2.15;;
32838;SDS011;19182;41.820;12.808;2024-02-26T13:53:12;3.47;;;1.50;;
32838;SDS011;19182;41.820;12.808;2024-02-26T13:55:39;2.90;;;1.70;;
32838;SDS011;19182;41.820;12.808;2024-02-26T13:58:07;2.45;;;1.80;;
32838;SDS011;19182;41.820;12.808;2024-02-26T14:00:35;3.42;;;1.75;;
32838;SDS011;19182;41.820;12.808;2024-02-26T14:03:02;4.85;;;2.67;;
32838;SDS011;19182;41.820;12.808;2024-02-26T14:05:34;5.45;;;2.83;;
32838;SDS011;19182;41.820;12.808;2024-02-26T14:08:00;3.35;;;2.50;;
32838;SDS011;19182;41.820;12.808;2024-02-26T14:10:26;7.47;;;3.45;;
32838;SDS011;19182;41.820;12.808;2024-02-26T14:12:52;4.40;;;2.70;;
32838;SDS011;19182;41.820;12.808;2024-02-26T14:15:19;2.88;;;2.00;;
32838;SDS011;19182;41.820;12.808;2024-02-26T14:17:45;4.47;;;1.70;;
32838;SDS011;19182;41.820;12.808;2024-02-26T14:20:18;6.00;;;1.90;;
32838;SDS011;19182;41.820;12.808;2024-02-26T14:22:44;3.50;;;1.98;;
32838;SDS011;19182;41.820;12.808;2024-02-26T14:25:10;4.60;;;2.00;;
32838;SDS011;19182;41.820;12.808;2024-02-26T14:27:39;2.65;;;1.77;;
32838;SDS011;19182;41.820;12.808;2024-02-26T14:30:05;6.53;;;2.22;;
32838;SDS011;19182;41.820;12.808;2024-02-26T14:32:32;8.95;;;3.78;;
32838;SDS011;19182;41.820;12.808;2024-02-26T14:35:00;6.45;;;2.13;;
32838;SDS011;19182;41.820;12.808;2024-02-26T14:37:26;5.57;;;2.42;;
32838;SDS011;19182;41.820;12.808;2024-02-26T14:39:52;4.20;;;2.35;;